Time;durP1;ratioP1;P1;durP2;ratioP2;P2;SDS_P1;SDS_P2;PMS_P1;PMS_P2;Temp;Humidity;BMP_temperature;BMP_pressure;BME280_temperature;BME280_humidity;BME280_pressure;Samples;Min_cycle;Max_cycle;Signal;HPM_P1;HPM_P2
2021/12/22 00:00:15;;;;;;;;;66.67;47.33;;;;;1.64;72.26;102394.28;5094337;27;45428;-71
2021/12/22 00:02:46;;;;;;;;;65.00;46.00;;;;;1.71;72.31;102405.81;5096539;27;45399;-71
2021/12/22 00:05:13;;;;;;;;;52.00;43.67;;;;;1.53;71.84;102372.22;5094253;27;45469;-71
2021/12/22 00:07:38;;;;;;;;;68.00;46.00;;;;;1.66;73.67;102402.19;5092677;27;45570;-71
2021/12/22 00:10:04;;;;;;;;;61.00;47.33;;;;;1.61;72.39;102399.44;5093724;27;45399;-71
2021/12/22 00:12:29;;;;;;;;;61.67;46.00;;;;;1.53;72.90;102380.03;5091270;27;45612;-71
2021/12/22 00:14:55;;;;;;;;;70.00;51.33;;;;;1.64;73.17;102390.81;5096378;27;45683;-71
2021/12/22 00:17:20;;;;;;;;;60.67;43.00;;;;;1.60;72.97;102384.63;5094122;27;45410;-71
2021/12/22 00:19:45;;;;;;;;;60.00;48.67;;;;;1.57;72.72;102377.59;5093622;27;46166;-71
2021/12/22 00:22:11;;;;;;;;;72.33;51.00;;;;;1.52;72.79;102357.41;5094087;27;45324;-71
2021/12/22 00:24:36;;;;;;;;;66.67;48.00;;;;;1.64;72.79;102391.69;5050604;27;1238057;-71
2021/12/22 00:27:03;;;;;;;;;57.67;46.00;;;;;1.58;72.86;102384.56;5096774;27;45309;-71
2021/12/22 00:29:28;;;;;;;;;77.00;49.00;;;;;1.63;72.46;102383.84;5096726;27;46935;-71
2021/12/22 00:32:08;;;;;;;;;69.67;50.00;;;;;1.59;72.52;102380.25;5094686;27;45328;-71
2021/12/22 00:34:34;;;;;;;;;66.33;47.33;;;;;1.55;72.64;102375.75;5095205;27;45370;-69
2021/12/22 00:36:59;;;;;;;;;67.67;47.67;;;;;1.52;72.32;102379.16;5094684;27;45380;-69
2021/12/22 00:39:24;;;;;;;;;61.33;47.33;;;;;1.36;72.40;102351.75;5093235;27;47004;-69
2021/12/22 00:41:50;;;;;;;;;78.00;50.67;;;;;1.53;72.75;102380.03;5097310;27;45269;-69
2021/12/22 00:44:15;;;;;;;;;69.67;53.00;;;;;1.52;72.66;102379.16;5094720;27;45237;-70
2021/12/22 00:46:41;;;;;;;;;71.33;55.33;;;;;1.51;72.95;102381.75;5093217;27;45309;-70
2021/12/22 00:49:07;;;;;;;;;77.00;52.67;;;;;1.49;72.68;102378.19;5094809;27;45435;-70
2021/12/22 00:51:32;;;;;;;;;78.67;52.33;;;;;1.33;72.86;102351.66;5093755;27;45449;-69
2021/12/22 00:53:57;;;;;;;;;66.00;46.33;;;;;1.27;72.11;102345.41;5096104;27;45310;-69
2021/12/22 00:56:23;;;;;;;;;74.67;53.00;;;;;1.34;72.73;102355.16;5074117;28;45914;-70
2021/12/22 00:58:48;;;;;;;;;67.00;48.67;;;;;1.37;72.75;102357.84;5090107;27;46469;-70
2021/12/22 01:01:14;;;;;;;;;74.67;51.67;;;;;1.43;73.19;102365.84;5094497;27;45312;-70
2021/12/22 01:03:39;;;;;;;;;62.33;51.33;;;;;1.44;73.28;102353.69;5094567;27;45436;-70
2021/12/22 01:06:05;;;;;;;;;64.67;48.00;;;;;1.52;73.00;102363.50;5075047;27;45392;-70
2021/12/22 01:08:30;;;;;;;;;41.33;36.67;;;;;1.49;72.94;102367.75;5096761;27;45918;-69
2021/12/22 01:10:56;;;;;;;;;62.33;44.00;;;;;1.44;73.12;102362.44;5088976;27;45728;-70
2021/12/22 01:13:22;;;;;;;;;57.67;50.00;;;;;1.48;72.59;102371.22;5094320;27;45386;-70
2021/12/22 01:15:48;;;;;;;;;68.33;47.33;;;;;1.37;72.93;102347.41;5094472;27;45357;-70
2021/12/22 01:18:25;;;;;;;;;70.00;49.33;;;;;1.44;72.95;102357.22;5094188;27;45333;-70
2021/12/22 01:23:25;;;;;;;;;67.67;47.67;;;;;1.32;73.19;102334.25;5094403;27;45311;-69
2021/12/22 01:25:51;;;;;;;;;58.33;47.67;;;;;1.29;72.99;102317.59;5092658;27;45518;-69
2021/12/22 01:28:18;;;;;;;;;54.67;43.67;;;;;1.50;72.98;102354.78;5093657;27;45980;-69
2021/12/22 01:30:47;;;;;;;;;64.67;47.00;;;;;1.39;73.00;102335.31;5075605;27;45428;-69
2021/12/22 01:33:13;;;;;;;;;59.67;46.67;;;;;1.33;72.54;102330.81;5094624;27;45325;-69
2021/12/22 01:35:39;;;;;;;;;56.33;45.67;;;;;1.35;72.54;102344.78;5095811;27;45375;-69
2021/12/22 01:38:06;;;;;;;;;61.00;48.00;;;;;1.43;72.56;102351.94;5093769;27;45340;-69
2021/12/22 01:40:34;;;;;;;;;54.00;44.33;;;;;1.45;72.45;102360.69;5093748;27;45486;-69
2021/12/22 01:43:02;;;;;;;;;58.00;44.67;;;;;1.31;72.98;102340.28;5093618;27;45568;-69
2021/12/22 01:46:09;;;;;;;;;72.00;45.67;;;;;1.06;72.24;102304.81;5094292;27;45443;-69
2021/12/22 01:51:39;;;;;;;;;63.00;45.33;;;;;1.34;72.93;102374.28;5094094;27;45399;-70
2021/12/22 01:54:13;;;;;;;;;71.67;47.67;;;;;1.32;72.85;102381.22;5094745;27;45370;-69
2021/12/22 01:56:39;;;;;;;;;58.00;41.33;;;;;1.31;72.41;102389.84;5093890;27;45651;-69
2021/12/22 01:59:07;;;;;;;;;54.33;43.00;;;;;1.29;73.06;102375.00;5093525;27;46016;-69
2021/12/22 02:01:33;;;;;;;;;64.33;45.00;;;;;1.28;73.24;102373.22;5075450;27;46200;-69
2021/12/22 02:04:00;;;;;;;;;62.00;48.33;;;;;1.24;72.79;102372.28;5092112;27;45410;-69
2021/12/22 02:06:26;;;;;;;;;58.67;44.33;;;;;1.06;73.10;102345.59;5093316;27;45421;-69
2021/12/22 02:08:53;;;;;;;;;46.00;44.33;;;;;1.10;73.01;102358.81;5091604;27;45504;-69
2021/12/22 02:11:21;;;;;;;;;60.00;42.67;;;;;1.22;72.90;102392.19;5093457;27;45348;-69
2021/12/22 02:13:52;;;;;;;;;58.33;41.00;;;;;1.10;72.79;102377.06;5093242;27;45629;-69
2021/12/22 02:16:25;;;;;;;;;60.00;45.67;;;;;1.20;73.09;102395.59;5093228;27;45337;-69
2021/12/22 02:18:53;;;;;;;;;63.33;45.00;;;;;1.19;72.58;102393.81;5093312;27;46410;-69
2021/12/22 02:21:20;;;;;;;;;60.00;45.00;;;;;1.15;72.65;102398.06;5093427;27;45451;-69
2021/12/22 02:23:46;;;;;;;;;57.33;44.00;;;;;0.70;72.60;102322.78;5095286;27;45554;-70
2021/12/22 02:26:16;;;;;;;;;60.33;45.00;;;;;1.13;73.30;102398.00;5093165;27;45633;-70
2021/12/22 02:28:46;;;;;;;;;55.67;41.00;;;;;1.12;73.03;102408.41;5084788;27;47571;-70
2021/12/22 02:31:15;;;;;;;;;55.00;45.00;;;;;1.00;72.88;102398.47;5074928;27;45770;-70
2021/12/22 02:33:43;;;;;;;;;54.67;42.00;;;;;1.08;73.02;102416.94;5093291;27;45398;-70
2021/12/22 02:38:55;;;;;;;;;53.67;42.00;;;;;0.85;73.09;102388.44;5094562;27;45461;-69
2021/12/22 02:41:23;;;;;;;;;51.00;43.00;;;;;0.85;72.84;102387.53;5093390;27;45381;-70
2021/12/22 02:43:52;;;;;;;;;49.33;41.00;;;;;0.97;72.60;102420.94;5091519;27;45461;-69
2021/12/22 02:46:21;;;;;;;;;58.00;44.33;;;;;0.94;72.88;102418.22;5093044;27;45400;-69
2021/12/22 02:48:47;;;;;;;;;61.33;41.67;;;;;0.95;73.00;102414.81;5092988;27;45463;-70
2021/12/22 02:51:14;;;;;;;;;55.00;43.67;;;;;0.98;73.08;102426.22;5074553;27;45375;-70
2021/12/22 02:53:47;;;;;;;;;52.00;39.00;;;;;0.82;72.81;102405.69;5095213;27;45294;-70
2021/12/22 02:59:00;;;;;;;;;55.67;43.33;;;;;0.85;72.80;102411.00;5092599;27;45381;-69
2021/12/22 03:04:10;;;;;;;;;45.33;36.33;;;;;0.79;73.19;102406.47;5092483;27;45429;-69
2021/12/22 03:06:40;;;;;;;;;54.00;39.33;;;;;0.84;72.53;102410.13;5092706;27;45547;-69
2021/12/22 03:09:23;;;;;;;;;39.33;29.33;;;;;0.86;72.87;102412.78;5093804;27;46501;-69
2021/12/22 03:11:49;;;;;;;;;59.00;43.33;;;;;0.72;73.69;102377.56;5094317;27;45436;-69
2021/12/22 03:14:16;;;;;;;;;62.67;46.00;;;;;0.72;73.06;102374.97;5092716;27;45556;-69
2021/12/22 03:16:42;;;;;;;;;48.67;42.33;;;;;0.82;72.98;102403.09;5096113;27;45407;-69
2021/12/22 03:19:10;;;;;;;;;52.00;42.33;;;;;0.72;72.87;102386.28;5095603;27;46357;-69
2021/12/22 03:21:36;;;;;;;;;52.33;42.00;;;;;0.75;72.90;102390.69;5094961;27;45556;-69
2021/12/22 03:24:02;;;;;;;;;39.67;33.33;;;;;0.67;72.85;102373.06;5097325;27;45328;-69
2021/12/22 03:26:29;;;;;;;;;56.00;43.00;;;;;0.80;73.20;102391.75;5096848;27;45417;-69
2021/12/22 03:28:55;;;;;;;;;55.33;46.67;;;;;0.79;73.37;102388.22;5095777;27;45302;-69
2021/12/22 03:31:20;;;;;;;;;55.33;41.33;;;;;0.79;73.29;102393.44;5107598;27;45326;-69
2021/12/22 03:33:46;;;;;;;;;43.00;33.33;;;;;0.61;73.19;102358.97;5095752;27;45435;-69
2021/12/22 03:36:11;;;;;;;;;40.33;27.33;;;;;0.72;73.25;102378.44;5095963;27;45705;-69
2021/12/22 03:38:37;;;;;;;;;51.00;44.33;;;;;0.70;73.46;102377.50;5097631;27;45294;-70
2021/12/22 03:41:05;;;;;;;;;62.00;44.67;;;;;0.70;73.18;102377.50;5106834;27;45556;-70
2021/12/22 03:43:31;;;;;;;;;64.33;45.33;;;;;0.74;72.86;102379.41;5095890;27;45482;-70
2021/12/22 03:45:57;;;;;;;;;56.00;44.33;;;;;0.69;73.17;102375.75;5096099;27;45647;-70
2021/12/22 03:48:24;;;;;;;;;58.00;46.00;;;;;0.72;72.94;102372.34;5095266;27;46196;-70
2021/12/22 03:50:50;;;;;;;;;60.00;47.33;;;;;0.54;73.26;102338.78;5097753;27;45342;-69
2021/12/22 03:53:16;;;;;;;;;61.00;42.00;;;;;0.66;73.03;102360.00;5077352;27;45611;-70
2021/12/22 03:55:41;;;;;;;;;69.33;44.00;;;;;0.68;73.48;102364.44;5077492;27;45679;-69
2021/12/22 03:58:07;;;;;;;;;54.00;42.00;;;;;0.68;73.74;102359.22;5076982;27;46357;-70
2021/12/22 04:00:35;;;;;;;;;59.00;43.67;;;;;0.29;73.51;102293.69;5094088;27;45510;-70
2021/12/22 04:03:02;;;;;;;;;55.67;38.00;;;;;0.68;72.83;102355.75;5096608;27;45397;-70
2021/12/22 04:05:28;;;;;;;;;50.00;42.00;;;;;0.50;73.40;102324.78;5096326;27;45571;-70
2021/12/22 04:07:55;;;;;;;;;59.67;43.33;;;;;0.41;72.94;102314.94;5095101;27;46358;-70
2021/12/22 04:10:22;;;;;;;;;46.67;42.33;;;;;0.51;72.46;102328.25;5095349;27;45428;-70
2021/12/22 04:12:53;;;;;;;;;55.67;42.33;;;;;0.63;72.36;102355.59;5095517;27;45523;-70
2021/12/22 04:15:20;;;;;;;;;50.33;40.00;;;;;0.61;73.64;102349.44;5095715;27;45868;-70
2021/12/22 04:17:45;;;;;;;;;54.33;40.67;;;;;0.60;72.87;102344.19;5096754;27;45355;-70
2021/12/22 04:20:12;;;;;;;;;53.00;41.67;;;;;0.58;73.12;102343.25;5082715;27;46308;-70
2021/12/22 04:22:38;;;;;;;;;55.00;44.00;;;;;0.57;73.49;102338.88;5095016;27;45456;-70
2021/12/22 04:25:06;;;;;;;;;52.67;37.67;;;;;0.45;72.43;102324.63;5095063;27;45481;-70
2021/12/22 04:27:31;;;;;;;;;46.00;39.33;;;;;0.37;72.33;102306.97;5093721;27;45346;-70
2021/12/22 04:29:57;;;;;;;;;52.67;34.33;;;;;0.54;72.97;102347.47;5096389;27;45398;-70
2021/12/22 04:32:22;;;;;;;;;44.33;39.67;;;;;0.50;72.92;102332.59;5095897;27;45460;-70
2021/12/22 04:34:48;;;;;;;;;38.33;28.33;;;;;0.52;72.68;102338.72;5094962;27;45374;-70
2021/12/22 04:37:13;;;;;;;;;44.00;36.00;;;;;0.52;72.95;102346.53;5094597;27;46166;-70
2021/12/22 04:39:38;;;;;;;;;48.00;38.67;;;;;0.42;73.44;102326.25;5093428;27;45367;-70
2021/12/22 04:42:04;;;;;;;;;47.33;41.67;;;;;0.51;72.68;102339.56;5096368;27;45659;-70
2021/12/22 04:44:29;;;;;;;;;45.33;33.67;;;;;0.44;73.39;102332.38;5095738;27;45492;-70
2021/12/22 04:46:55;;;;;;;;;46.00;36.33;;;;;0.45;72.97;102334.16;5094599;27;45272;-70
2021/12/22 04:49:20;;;;;;;;;43.67;37.00;;;;;-0.12;73.33;102227.25;5094639;27;45475;-70
2021/12/22 04:51:51;;;;;;;;;49.67;43.00;;;;;0.48;73.75;102342.06;5095211;27;45410;-70
2021/12/22 04:54:29;;;;;;;;;40.67;37.67;;;;;0.37;73.44;102320.88;5094937;27;45532;-69
2021/12/22 04:56:56;;;;;;;;;52.00;39.67;;;;;0.49;73.16;102340.34;5096790;27;46125;-70
2021/12/22 04:59:21;;;;;;;;;45.00;39.00;;;;;0.48;73.16;102344.69;5092040;27;45533;-70
2021/12/22 05:01:47;;;;;;;;;50.33;36.33;;;;;0.38;72.78;102333.06;5084730;27;45451;-70
2021/12/22 05:04:13;;;;;;;;;43.00;35.33;;;;;0.45;72.65;102347.19;5094548;27;45341;-70
2021/12/22 05:06:38;;;;;;;;;44.67;34.33;;;;;0.37;72.96;102325.19;5094197;27;46209;-70
2021/12/22 05:09:05;;;;;;;;;38.00;34.33;;;;;0.31;73.30;102320.66;5075374;27;45619;-69
2021/12/22 05:11:30;;;;;;;;;33.67;27.00;;;;;0.24;72.18;102313.50;5077084;27;45449;-70
2021/12/22 05:13:56;;;;;;;;;28.33;25.33;;;;;0.30;73.09;102324.13;5084044;27;45644;-70
2021/12/22 05:16:21;;;;;;;;;35.33;27.00;;;;;0.42;72.66;102344.47;5075641;27;48412;-70
2021/12/22 05:21:21;;;;;;;;;46.67;29.00;;;;;0.20;73.14;102301.19;5094277;27;45541;-70
2021/12/22 05:23:48;;;;;;;;;32.00;25.00;;;;;0.40;73.49;102331.38;5096151;27;45298;-70
2021/12/22 05:26:13;;;;;;;;;35.00;25.67;;;;;0.29;73.50;102311.03;5094220;27;45782;-70
2021/12/22 05:28:39;;;;;;;;;36.33;31.67;;;;;0.43;72.93;102334.09;5092262;27;45742;-70
2021/12/22 05:31:04;;;;;;;;;43.33;32.67;;;;;0.29;73.09;102322.31;5094078;27;45434;-70
2021/12/22 05:33:30;;;;;;;;;32.00;25.33;;;;;0.43;73.13;102341.91;5094176;27;45361;-70
2021/12/22 05:35:55;;;;;;;;;35.00;28.33;;;;;0.35;72.90;102338.16;5074577;28;48034;-70
2021/12/22 05:38:20;;;;;;;;;32.33;29.33;;;;;0.30;73.30;102321.50;5093300;27;45259;-70
2021/12/22 05:40:46;;;;;;;;;41.67;34.00;;;;;0.32;73.53;102332.84;5093933;27;45308;-70
2021/12/22 05:43:11;;;;;;;;;35.67;32.00;;;;;0.44;73.93;102350.59;5093469;27;45386;-70
2021/12/22 05:45:37;;;;;;;;;47.33;36.00;;;;;0.38;73.81;102338.28;5093567;27;46562;-70
2021/12/22 05:48:02;;;;;;;;;52.67;38.00;;;;;0.33;73.31;102333.75;5095232;27;45425;-70
2021/12/22 05:50:28;;;;;;;;;41.33;32.67;;;;;0.31;73.32;102340.63;5094456;27;45484;-70
2021/12/22 05:52:53;;;;;;;;;38.00;34.67;;;;;0.37;73.59;102349.53;5083932;27;45653;-70
2021/12/22 05:55:18;;;;;;;;;47.00;40.00;;;;;0.44;73.19;102369.75;5093668;27;46515;-70
2021/12/22 05:57:45;;;;;;;;;55.33;37.67;;;;;0.34;73.27;102345.94;5092034;27;45478;-70
2021/12/22 06:00:12;;;;;;;;;39.67;31.67;;;;;0.44;74.06;102350.59;5093818;27;45531;-70
2021/12/22 06:02:37;;;;;;;;;52.33;40.00;;;;;0.33;73.10;102334.63;5093513;27;45411;-70
2021/12/22 06:05:03;;;;;;;;;50.00;40.33;;;;;0.43;73.65;102351.44;5092978;27;45344;-70
2021/12/22 06:07:28;;;;;;;;;51.33;41.00;;;;;0.29;73.95;102314.50;5093228;27;45568;-70
2021/12/22 06:09:54;;;;;;;;;47.00;41.00;;;;;0.43;73.82;102322.78;5075028;27;47797;-70
2021/12/22 06:12:19;;;;;;;;;54.67;36.00;;;;;0.43;73.03;102308.03;5093140;27;45504;-70
2021/12/22 06:14:44;;;;;;;;;59.00;39.33;;;;;0.46;73.04;102315.06;5095627;27;45427;-70
2021/12/22 06:17:10;;;;;;;;;46.00;37.67;;;;;0.27;73.46;102287.56;5074621;27;45627;-70
2021/12/22 06:19:35;;;;;;;;;48.00;35.00;;;;;0.50;73.68;102319.56;5074931;27;45508;-70
2021/12/22 06:22:00;;;;;;;;;53.00;40.00;;;;;0.34;72.92;102284.31;5093244;27;45528;-70
2021/12/22 06:24:26;;;;;;;;;45.67;36.00;;;;;0.36;72.72;102290.47;5074575;27;47516;-70
2021/12/22 06:26:51;;;;;;;;;47.00;32.67;;;;;0.49;73.06;102320.38;5077083;27;45567;-70
2021/12/22 06:29:17;;;;;;;;;46.67;36.33;;;;;0.36;73.63;102305.22;5093166;27;45424;-70
2021/12/22 06:31:42;;;;;;;;;50.67;38.00;;;;;0.05;73.35;102253.84;5092940;27;45476;-70
2021/12/22 06:34:07;;;;;;;;;44.33;33.33;;;;;0.33;73.13;102311.19;5087287;27;46166;-69
2021/12/22 06:36:33;;;;;;;;;48.33;35.00;;;;;0.51;73.33;102343.91;5093083;27;45635;-70
2021/12/22 06:38:59;;;;;;;;;40.00;32.33;;;;;0.50;73.12;102358.66;5095027;27;45434;-70
2021/12/22 06:41:25;;;;;;;;;38.00;36.67;;;;;0.48;72.81;102364.63;5094161;27;45468;-70
2021/12/22 06:43:51;;;;;;;;;49.00;35.00;;;;;0.42;73.24;102360.09;5083346;27;47286;-70
2021/12/22 06:46:16;;;;;;;;;53.00;41.33;;;;;0.43;72.73;102362.75;5093052;27;45429;-70
2021/12/22 06:48:41;;;;;;;;;45.00;37.00;;;;;0.42;72.88;102365.31;5092900;27;45435;-71
2021/12/22 06:51:07;;;;;;;;;42.33;37.00;;;;;0.33;72.56;102352.88;5096777;27;45340;-71
2021/12/22 06:53:34;;;;;;;;;57.00;40.00;;;;;0.35;73.64;102358.09;5097762;27;46187;-71
2021/12/22 06:56:00;;;;;;;;;51.33;32.00;;;;;0.39;72.96;102360.88;5096067;27;45705;-71
2021/12/22 06:58:26;;;;;;;;;60.67;42.00;;;;;0.37;73.17;102351.25;5096745;27;45483;-71
2021/12/22 07:00:52;;;;;;;;;50.67;40.00;;;;;0.26;73.78;102331.75;5096613;27;45185;-71
2021/12/22 07:03:17;;;;;;;;;38.33;38.00;;;;;0.31;73.38;102351.91;5095749;27;46416;-71
2021/12/22 07:05:42;;;;;;;;;51.67;34.33;;;;;0.27;73.48;102344.84;5098660;27;45349;-71
2021/12/22 07:08:08;;;;;;;;;50.67;39.00;;;;;0.27;73.43;102342.25;5096234;27;45421;-71
2021/12/22 07:10:33;;;;;;;;;42.00;35.00;;;;;0.14;73.29;102325.31;5095874;27;45452;-71
2021/12/22 07:12:59;;;;;;;;;51.33;37.33;;;;;0.25;73.37;102348.22;5096511;27;45437;-71
2021/12/22 07:15:24;;;;;;;;;49.67;36.33;;;;;0.15;73.41;102334.03;5079929;27;45466;-71
2021/12/22 07:17:50;;;;;;;;;42.00;35.33;;;;;0.23;73.97;102355.97;5096810;27;45406;-71
2021/12/22 07:20:16;;;;;;;;;50.33;39.00;;;;;0.15;73.04;102337.50;5096004;27;45435;-71
2021/12/22 07:22:42;;;;;;;;;53.00;39.00;;;;;0.12;73.29;102333.88;5078616;27;46782;-71
2021/12/22 07:25:09;;;;;;;;;48.00;35.33;;;;;0.05;73.46;102317.19;5077442;27;45384;-71
2021/12/22 07:27:35;;;;;;;;;50.33;36.00;;;;;0.04;73.53;102314.56;5092822;27;45324;-71
2021/12/22 07:30:00;;;;;;;;;56.67;37.00;;;;;0.18;73.62;102336.72;5093396;27;45557;-71
2021/12/22 07:32:26;;;;;;;;;44.67;36.33;;;;;0.06;73.83;102305.06;5094822;27;45417;-71
2021/12/22 07:35:09;;;;;;;;;40.67;38.33;;;;;0.30;73.82;102344.06;5095802;27;45311;-71
2021/12/22 07:37:37;;;;;;;;;41.67;36.67;;;;;0.29;73.98;102345.75;5095802;27;46906;-71
2021/12/22 07:40:05;;;;;;;;;41.00;35.00;;;;;0.31;73.25;102341.50;5096066;27;45673;-71
2021/12/22 07:42:30;;;;;;;;;41.00;34.00;;;;;-0.16;73.52;102259.22;5095488;27;46650;-71
2021/12/22 07:44:55;;;;;;;;;40.00;33.67;;;;;0.32;73.61;102340.66;5097837;27;45376;-71
2021/12/22 07:47:21;;;;;;;;;42.33;30.00;;;;;0.39;73.22;102345.25;5095607;27;45850;-71
2021/12/22 07:49:46;;;;;;;;;48.00;36.33;;;;;0.38;72.80;102343.50;5095436;27;45466;-71
2021/12/22 07:52:11;;;;;;;;;34.00;31.67;;;;;0.42;73.52;102342.75;5094417;27;45379;-71
2021/12/22 07:54:38;;;;;;;;;43.00;35.00;;;;;0.22;72.52;102307.34;5093728;27;45402;-71
2021/12/22 07:57:03;;;;;;;;;45.67;34.33;;;;;0.25;71.63;102312.66;5096723;27;45362;-71
2021/12/22 07:59:29;;;;;;;;;42.00;35.00;;;;;0.41;71.81;102337.47;5096928;27;45351;-71
2021/12/22 08:01:56;;;;;;;;;39.33;31.00;;;;;0.50;72.81;102352.53;5094485;27;45285;-71
2021/12/22 08:04:22;;;;;;;;;40.33;37.00;;;;;0.51;72.83;102354.31;5095238;27;45290;-71
2021/12/22 08:06:47;;;;;;;;;39.67;34.00;;;;;0.14;72.36;102285.38;5095889;27;45748;-71
2021/12/22 08:09:12;;;;;;;;;46.00;32.67;;;;;0.44;71.50;102327.16;5095112;27;45361;-71
2021/12/22 08:11:38;;;;;;;;;42.33;32.00;;;;;0.57;72.58;102355.38;5080986;27;48212;-71
2021/12/22 08:14:03;;;;;;;;;48.33;40.67;;;;;0.13;73.40;102262.78;5095081;27;45445;-71
2021/12/22 08:16:29;;;;;;;;;46.67;34.67;;;;;0.65;72.95;102343.50;5095193;27;45767;-71
2021/12/22 08:18:54;;;;;;;;;46.00;33.33;;;;;0.68;72.58;102341.00;5095275;27;45490;-71
2021/12/22 08:21:19;;;;;;;;;46.00;39.00;;;;;0.67;71.05;102322.69;5095205;27;45403;-71
2021/12/22 08:23:45;;;;;;;;;45.33;36.00;;;;;0.66;71.10;102316.59;5079443;27;45459;-71
2021/12/22 08:26:10;;;;;;;;;34.67;34.67;;;;;0.82;70.81;102335.31;5095456;27;45357;-71
2021/12/22 08:28:35;;;;;;;;;10.33;0.00;;;;;0.71;71.14;102306.34;5076635;27;45599;-71
2021/12/22 08:31:01;;;;;;;;;63.00;43.00;;;;;0.90;70.75;102334.72;5094864;27;45507;-71
2021/12/22 08:33:30;;;;;;;;;56.33;44.67;;;;;0.82;72.19;102304.03;5093901;27;45581;-71
2021/12/22 08:38:57;;;;;;;;;61.67;41.67;;;;;0.83;69.74;102288.47;5096661;27;45270;-71
2021/12/22 08:41:26;;;;;;;;;47.33;40.67;;;;;1.06;69.25;102315.22;5095175;27;46154;-71
2021/12/22 08:43:53;;;;;;;;;42.67;33.67;;;;;1.11;69.94;102317.97;5084905;27;45502;-71
2021/12/22 08:46:20;;;;;;;;;44.67;34.67;;;;;1.12;69.23;102304.09;5095160;27;45425;-71
2021/12/22 08:48:45;;;;;;;;;36.67;29.67;;;;;1.18;68.95;102301.66;5094946;27;45469;-71
2021/12/22 08:51:11;;;;;;;;;37.33;32.33;;;;;1.12;68.83;102289.34;5094183;27;46151;-71
2021/12/22 08:53:36;;;;;;;;;50.67;40.33;;;;;1.20;68.65;102293.88;5096331;27;47855;-71
2021/12/22 08:56:03;;;;;;;;;42.33;31.33;;;;;1.32;69.66;102309.88;5097726;27;45328;-71
2021/12/22 08:58:29;;;;;;;;;43.00;33.00;;;;;1.21;68.52;102275.69;5085490;27;45269;-71
2021/12/22 09:00:55;;;;;;;;;44.00;34.00;;;;;1.41;69.16;102310.13;5088846;27;47499;-71
2021/12/22 09:03:20;;;;;;;;;62.00;40.67;;;;;1.46;68.76;102308.53;5094624;27;45414;-71
2021/12/22 09:05:46;;;;;;;;;39.00;33.33;;;;;1.38;68.18;102277.88;5095036;27;45460;-71
2021/12/22 09:08:11;;;;;;;;;42.00;32.00;;;;;1.41;67.65;102280.56;5094463;27;45660;-71
2021/12/22 09:10:36;;;;;;;;;43.00;32.00;;;;;1.35;69.50;102269.13;5094060;27;47606;-71
2021/12/22 09:13:02;;;;;;;;;50.00;36.67;;;;;1.26;68.72;102234.94;5091820;27;45407;-71
2021/12/22 09:15:28;;;;;;;;;44.33;39.00;;;;;1.61;67.95;102286.34;5094425;27;45500;-71
2021/12/22 09:17:53;;;;;;;;;48.00;35.67;;;;;1.70;67.94;102292.69;5096600;27;45425;-71
2021/12/22 09:20:19;;;;;;;;;42.00;29.00;;;;;1.74;66.75;102276.28;5093556;27;45450;-71
2021/12/22 09:22:44;;;;;;;;;43.33;31.67;;;;;1.97;67.06;102300.38;5093751;27;45368;-71
2021/12/22 09:25:10;;;;;;;;;42.00;35.33;;;;;2.03;67.86;102290.09;5092723;27;45484;-71
2021/12/22 09:27:35;;;;;;;;;46.00;34.00;;;;;2.18;67.31;102291.31;5092654;27;45489;-70
2021/12/22 09:30:01;;;;;;;;;42.33;38.00;;;;;2.32;65.57;102276.84;5095686;27;46314;-70
2021/12/22 09:32:27;;;;;;;;;45.00;34.67;;;;;2.69;64.78;102299.50;5094556;27;45382;-70
2021/12/22 09:34:52;;;;;;;;;38.67;27.67;;;;;2.83;65.32;102297.22;5075007;27;45532;-70
2021/12/22 09:37:18;;;;;;;;;51.67;39.67;;;;;3.00;64.84;102289.75;5093688;27;45334;-70
2021/12/22 09:39:44;;;;;;;;;45.00;37.33;;;;;3.17;64.13;102259.56;5093834;27;46429;-69
2021/12/22 09:42:11;;;;;;;;;46.67;39.67;;;;;3.52;63.01;102276.84;5080679;27;45458;-70
2021/12/22 09:44:43;;;;;;;;;40.67;29.67;;;;;4.04;62.30;102272.56;5095925;27;45410;-70
2021/12/22 09:47:10;;;;;;;;;45.00;32.67;;;;;4.93;60.83;102295.78;5094004;27;45329;-70
2021/12/22 09:52:16;;;;;;;;;42.33;36.67;;;;;6.19;56.48;102286.72;5092223;27;45267;-70
2021/12/22 09:54:42;;;;;;;;;34.33;25.33;;;;;6.51;54.59;102254.56;5093949;27;45368;-70
2021/12/22 09:57:08;;;;;;;;;42.50;29.75;;;;;7.39;53.72;102269.91;5095312;27;45366;-72
2021/12/22 09:59:33;;;;;;;;;51.67;39.00;;;;;8.36;51.42;102268.28;5093153;27;46131;-71
2021/12/22 10:01:58;;;;;;;;;36.00;32.50;;;;;9.73;49.67;102268.69;5083150;27;45649;-71
2021/12/22 10:04:24;;;;;;;;;35.75;33.00;;;;;10.91;46.41;102256.22;5092497;27;45561;-71
2021/12/22 10:06:49;;;;;;;;;40.75;34.75;;;;;11.96;44.38;102266.31;5093704;27;45382;-71
2021/12/22 10:09:22;;;;;;;;;27.75;25.50;;;;;12.80;42.23;102269.31;5093442;27;46101;-71
2021/12/22 10:11:48;;;;;;;;;37.25;29.50;;;;;13.34;40.99;102245.19;5095481;27;45313;-71
2021/12/22 10:14:23;;;;;;;;;24.00;23.25;;;;;13.80;39.97;102242.38;5093437;27;46013;-71
2021/12/22 10:16:52;;;;;;;;;38.75;29.00;;;;;14.34;39.17;102251.66;5093470;27;45576;-71
2021/12/22 10:19:19;;;;;;;;;38.75;31.25;;;;;14.60;38.04;102243.03;5093126;27;47246;-71
2021/12/22 10:21:53;;;;;;;;;47.50;32.50;;;;;14.95;38.24;102222.50;5093366;27;45468;-71
2021/12/22 10:24:19;;;;;;;;;34.50;30.00;;;;;15.22;36.66;102226.16;5076484;27;45558;-71
2021/12/22 10:26:45;;;;;;;;;36.25;33.25;;;;;15.35;36.34;102222.22;5098992;27;45389;-71
2021/12/22 10:29:10;;;;;;;;;36.75;31.00;;;;;15.03;36.44;102235.59;5096509;27;45274;-70
2021/12/22 10:31:41;;;;;;;;;32.00;28.00;;;;;13.93;38.40;102237.59;5095593;27;45398;-70
2021/12/22 10:34:12;;;;;;;;;41.50;28.25;;;;;12.54;40.21;102222.88;5096193;27;47464;-71
2021/12/22 10:36:55;;;;;;;;;38.75;32.00;;;;;11.43;42.64;102237.00;5096785;27;45567;-71
2021/12/22 10:39:28;;;;;;;;;42.25;34.50;;;;;10.61;43.50;102231.81;5096568;27;45535;-71
2021/12/22 10:42:09;;;;;;;;;38.75;31.00;;;;;9.75;44.99;102231.69;5094399;27;45480;-71
2021/12/22 10:44:38;;;;;;;;;38.00;31.50;;;;;9.13;46.35;102225.00;5079914;27;45347;-71
2021/12/22 10:47:22;;;;;;;;;37.75;32.00;;;;;8.72;48.39;102231.31;5096087;27;47635;-71
2021/12/22 10:50:07;;;;;;;;;41.50;35.25;;;;;8.07;48.88;102220.81;5096212;27;45485;-71
2021/12/22 10:52:34;;;;;;;;;42.00;37.00;;;;;7.79;50.51;102225.19;5096365;27;45548;-71
2021/12/22 10:55:10;;;;;;;;;50.50;34.00;;;;;7.37;50.58;102215.47;5096391;27;45400;-71
2021/12/22 10:57:37;;;;;;;;;41.25;35.75;;;;;6.97;51.25;102218.84;5081803;27;45486;-71
2021/12/22 11:00:21;;;;;;;;;43.00;34.50;;;;;6.60;52.13;102223.91;5097590;27;45607;-71
2021/12/22 11:03:07;;;;;;;;;45.75;38.00;;;;;6.39;53.06;102212.41;5080590;27;45716;-70
2021/12/22 11:05:42;;;;;;;;;58.25;38.50;;;;;6.18;53.26;102216.63;5097587;27;45618;-71
2021/12/22 11:08:18;;;;;;;;;56.50;40.25;;;;;6.04;54.00;102211.25;5077670;27;45477;-70
2021/12/22 11:10:43;;;;;;;;;47.25;38.75;;;;;5.86;54.31;102190.94;5094716;27;45393;-69
2021/12/22 11:13:09;;;;;;;;;46.75;39.50;;;;;5.85;53.36;102197.06;5077530;27;45866;-69
2021/12/22 11:15:42;;;;;;;;;50.75;39.50;;;;;5.60;53.84;102177.56;5093028;27;45470;-70
2021/12/22 11:18:09;;;;;;;;;55.25;40.00;;;;;5.17;54.06;102131.63;5096478;27;45367;-70
2021/12/22 11:20:35;;;;;;;;;59.00;43.00;;;;;5.42;55.20;102188.78;5097426;27;46200;-70
2021/12/22 11:23:02;;;;;;;;;55.50;40.50;;;;;5.28;55.95;102172.00;5095357;27;45432;-69
2021/12/22 11:25:28;;;;;;;;;46.00;39.00;;;;;5.27;55.07;102179.88;5090003;27;45477;-70
2021/12/22 11:27:55;;;;;;;;;59.00;39.00;;;;;5.29;56.60;102184.25;5077580;27;45538;-70
2021/12/22 11:30:22;;;;;;;;;46.75;37.75;;;;;5.23;56.61;102176.31;5095734;27;45456;-70
2021/12/22 11:32:48;;;;;;;;;56.67;41.00;;;;;5.26;56.08;102175.47;5097638;27;45452;-70
2021/12/22 11:35:15;;;;;;;;;61.67;44.00;;;;;4.79;56.61;102095.38;5078795;27;45651;-71
2021/12/22 11:37:42;;;;;;;;;57.00;42.33;;;;;5.12;56.67;102151.72;5095410;27;45561;-72